This is the latest recevied weather packets stored in our database for station/object WG5EEK. If no packets are shown the sender has not sent any weather packets the latest 10 day(s).
| Time | Temp. | Humidity | Pressure | Rain* | Wind** | Luminosity | Snow |
|---|---|---|---|---|---|---|---|
| 1777555828 | 15.56° C | 70% | 989.3 hPa | - | - | - | - |
| 1777552562 | 13.89° C | 77% | 991.6 hPa | - | - | - | - |
| 1777551842 | 13.89° C | 77% | 991.8 hPa | - | - | - | - |
| 1777550042 | 13.89° C | 78% | 992.3 hPa | - | - | - | - |
| 1777548242 | 13.89° C | 78% | 991.9 hPa | - | - | - | - |
| 1777547883 | 13.89° C | 78% | 992 hPa | - | - | - | - |
| 1777547521 | 13.89° C | 79% | 992 hPa | - | - | - | - |
| 1777547162 | 13.89° C | 79% | 992.1 hPa | - | - | - | - |
| 1777545362 | 13.89° C | 79% | 992.1 hPa | - | - | - | - |
| 1777543202 | 13.89° C | 77% | 991.6 hPa | - | - | - | - |
| 1777542481 | 14.44° C | 77% | 991.5 hPa | - | - | - | - |
| 1777542122 | 14.44° C | 78% | 991.6 hPa | - | - | - | - |
| 1777541401 | 13.89° C | 78% | 991.6 hPa | - | - | - | - |
| 1777541042 | 13.89° C | 78% | 991.6 hPa | - | - | - | - |
| 1777539961 | 13.33° C | 80% | 992.7 hPa | - | - | - | - |
| 1777537082 | 13.89° C | 78% | 991.6 hPa | - | - | - | - |
| 1777535643 | 14.44° C | 76% | 990.6 hPa | - | - | - | - |
| 1777534561 | 14.44° C | 76% | 990.5 hPa | - | - | - | - |
| 1777534202 | 14.44° C | 76% | 990.5 hPa | - | - | - | - |
| 1777533841 | 15° C | 75% | 989.9 hPa | - | - | - | - |
| 1777532762 | 15.56° C | 73% | 989.5 hPa | - | - | - | - |
| 1777532042 | 15.56° C | 73% | 988.9 hPa | - | - | - | - |
| 1777528442 | 16.11° C | 73% | 988.6 hPa | - | - | - | - |
| 1777527362 | 16.11° C | 72% | 987.8 hPa | - | - | - | - |
| 1777526281 | 16.67° C | 71% | 987.4 hPa | - | - | - | - |
* Rain since midnight (hover to see other rain measurements)
** Current wind speed in m/s (hover to see current wind gust speed)